Date,TemperatureHighF,TemperatureAvgF,TemperatureLowF,DewpointHighF,DewpointAvgF,DewpointLowF,HumidityHigh,HumidityAvg,HumidityLow,PressureMaxIn,PressureMinIn,WindSpeedMaxMPH,WindSpeedAvgMPH,GustSpeedMaxMPH,PrecipitationSumIn
2013-1-1,43,32,22,22,14,2,80,50,18,30.28,30.04,6,2,20,0.00
2013-1-2,51,31,15,21,15,9,83,57,27,30.39,30.06,6,1,17,0.00
2013-1-3,29,25,20,24,20,16,88,84,76,30.43,30.16,7,3,14,0.00
2013-1-7,46,39,31,31,29,24,81,69,56,29.91,29.83,3,2,13,0.00
2013-1-8,52,37,24,35,28,21,90,73,47,30.06,29.75,6,2,17,0.00
2013-1-9,35,34,33,33,32,30,94,92,84,30.07,29.94,3,2,13,0.04
2013-1-13,38,30,21,16,12,8,74,50,30,30.21,30.01,10,3,17,0.00
2013-1-14,37,24,12,23,17,8,87,76,54,30.26,30.02,9,2,20,0.00
2013-1-15,31,22,11,20,11,-5,87,64,34,30.41,30.08,6,2,20,0.00
2013-1-16,41,28,18,13,3,-8,65,35,25,30.51,30.35,6,2,17,0.00
2013-1-17,49,32,16,25,18,12,90,60,33,30.66,30.45,7,2,17,0.00
2013-1-18,56,38,21,21,18,15,84,49,22,30.51,30.13,8,2,18,0.00
2013-1-19,61,45,22,21,16,12,75,38,17,30.28,30.01,8,3,22,0.00
2013-1-20,62,38,19,26,18,3,84,55,10,30.44,30.10,6,1,17,0.00
2013-1-21,59,39,22,24,21,18,88,57,22,30.39,30.10,7,2,12,0.00
2013-1-22,65,44,27,29,25,21,82,55,22,30.36,30.09,6,1,14,0.00
2013-1-23,65,46,28,29,25,22,82,51,21,30.38,30.14,6,2,17,0.00
2013-1-24,68,47,29,35,30,26,90,58,23,30.39,30.08,10,3,20,0.00
2013-1-25,67,55,37,39,35,29,76,49,33,30.15,29.91,5,2,14,1.43
2013-1-26,71,57,39,37,33,28,87,46,22,30.03,29.75,10,3,22,1.43
2013-1-27,65,53,37,42,34,29,87,52,27,30.01,29.73,10,2,20,0.00
2013-1-28,63,52,33,31,27,20,78,41,19,29.93,29.62,12,5,26,0.00
2013-1-29,57,40,31,29,19,4,74,44,25,29.99,29.57,14,8,36,0.00
2013-1-30,40,32,25,16,10,2,66,41,24,30.26,29.99,11,5,28,0.00
2013-1-31,56,46,32,16,11,4,45,25,14,30.27,30.11,7,3,14,0.00